Flight Track Log - Related Links

Times and Time Zones

All times are in EDT time to prevent confusion due to time zone crossing. See the N717AN flight status page for this flight to view local times or setup timezone preferences in your user account.


Time Position Orientation Groundspeed Altitude Reporting Facility
EDT Latitude Longitude Course Direction KTS MPH feet Rate Location/Type
Sat 06:15:18 PM 32.8680 -97.0290 173° South 206 237 1,600  Level FlightAware ADS-B
Sat 06:15:28 PM 32.8580 -97.0270 170° South 204 235 2,100 1,909 Climbing FlightAware ADS-B
Sat 06:15:40 PM 32.8480 -97.0240 166° South 207 238 2,300 833 Climbing FlightAware ADS-B
Sat 06:16:04 PM 32.8220 -97.0170 167° South 239 275 2,600 1,227 Climbing FlightAware ADS-B
Sat 06:16:24 PM 32.8000 -97.0070 159° South 254 292 3,200 2,000 Climbing FlightAware ADS-B
Sat 06:16:28 PM 32.7960 -97.0040 148° Southeast 252 290 3,400 2,500 Climbing FlightAware ADS-B
Sat 06:16:36 PM 32.7910 -96.9960 127° Southeast 248 285 3,700 1,875 Climbing FlightAware ADS-B
Sat 06:16:44 PM 32.7870 -96.9860 115° Southeast 253 291 3,900 1,714 Climbing FlightAware ADS-B
Sat 06:16:50 PM 32.7850 -96.9780 107° East 256 295 4,100 2,400 Climbing FlightAware ADS-B
Sat 06:16:54 PM 32.7850 -96.9720 90° East 260 299 4,300 2,400 Climbing FlightAware ADS-B
Sat 06:17:20 PM 32.7880 -96.9380 84° East 263 303 5,300 2,478 Climbing FlightAware ADS-B
Sat 06:17:40 PM 32.7910 -96.9080 83° East 264 304 6,200 2,229 Climbing FlightAware ADS-B
Sat 06:17:55 PM 32.7960 -96.8870 74° East 275 316 6,600 1,895 Climbing FlightAware ADS-B
Sat 06:17:59 PM 32.7990 -96.8800 63° Northeast 279 321 6,800 2,500 Climbing FlightAware ADS-B
Sat 06:18:07 PM 32.8060 -96.8710 47° Northeast 282 325 7,100 2,250 Climbing FlightAware ADS-B
Sat 06:18:15 PM 32.8150 -96.8640 33° Northeast 289 333 7,400 2,400 Climbing FlightAware ADS-B
Sat 06:18:27 PM 32.8290 -96.8550 28° Northeast 289 333 7,900 2,364 Climbing FlightAware ADS-B
Sat 06:18:48 PM 32.8540 -96.8460 17° North 292 336 8,700 2,368 Climbing FlightAware ADS-B
Sat 06:19:05 PM 32.8780 -96.8420 North 297 342 9,400 2,377 Climbing FlightAware ADS-B
Sat 06:19:41 PM 32.9290 -96.8410 North 303 349 10,800 1,701 Climbing FlightAware ADS-B
Sat 06:20:12 PM 32.9740 -96.8380 North 335 386 11,300 1,100 Climbing FlightAware ADS-B
Sat 06:20:41 PM 33.0210 -96.8370 North 362 417 11,900 1,969 Climbing FlightAware ADS-B
Sat 06:21:16 PM 33.0820 -96.8350 North 364 419 13,400 2,333 Climbing FlightAware ADS-B
Sat 06:21:53 PM 33.1440 -96.8330 North 374 430 14,700 2,000 Climbing FlightAware ADS-B
Sat 06:22:28 PM 33.2060 -96.8310 North 384 442 15,800 1,941 Climbing FlightAware ADS-B
Sat 06:23:01 PM 33.2610 -96.8290 North 389 448 16,900 2,000 Climbing FlightAware ADS-B
Sat 06:23:37 PM 33.3270 -96.8080 15° North 394 453 18,100 1,917 Climbing FlightAware ADS-B
Sat 06:24:13 PM 33.3880 -96.7720 26° Northeast 402 463 19,200 1,727 Climbing FlightAware ADS-B
Sat 06:24:43 PM 33.4400 -96.7400 27° Northeast 413 475 20,000 1,853 Climbing FlightAware ADS-B
Sat 06:25:21 PM 33.5030 -96.6990 28° Northeast 413 475 21,300 1,840 Climbing FlightAware ADS-B
Sat 06:25:58 PM 33.5640 -96.6580 29° Northeast 419 482 22,300 1,652 Climbing FlightAware ADS-B
Sat 06:26:30 PM 33.6170 -96.6220 29° Northeast 423 487 23,200 1,791 Climbing FlightAware ADS-B
Sat 06:27:05 PM 33.6780 -96.5810 29° Northeast 426 490 24,300 1,583 Climbing FlightAware ADS-B
Sat 06:27:42 PM 33.7450 -96.5370 29° Northeast 433 498 25,100 1,391 Climbing FlightAware ADS-B
Sat 06:28:14 PM 33.8010 -96.4990 29° Northeast 436 502 25,900 1,391 Climbing FlightAware ADS-B
Sat 06:28:51 PM 33.8680 -96.4540 29° Northeast 440 506 26,700 1,417 Climbing FlightAware ADS-B
Sat 06:29:26 PM 33.9280 -96.4130 30° Northeast 441 507 27,600 1,412 Climbing FlightAware ADS-B
Sat 06:29:59 PM 33.9880 -96.3730 29° Northeast 444 511 28,300 1,233 Climbing FlightAware ADS-B
Sat 06:30:39 PM 34.0600 -96.3240 29° Northeast 449 517 29,100 1,333 Climbing FlightAware ADS-B
Sat 06:31:11 PM 34.1180 -96.2850 29° Northeast 448 516 29,900 1,324 Climbing FlightAware ADS-B
Sat 06:31:47 PM 34.1840 -96.2390 30° Northeast 452 520 30,600 917 Climbing FlightAware ADS-B
Sat 06:32:23 PM 34.2500 -96.1950 29° Northeast 461 531 31,000 343 Climbing FlightAware ADS-B
Sat 06:32:57 PM 34.3130 -96.1520 29° Northeast 465 535 31,000  Level FlightAware ADS-B
Sat 06:33:28 PM 34.3710 -96.1120 30° Northeast 467 537 31,000  Level FlightAware ADS-B
Sat 06:34:05 PM 34.4410 -96.0640 29° Northeast 469 540 31,000  Level FlightAware ADS-B
Sat 06:34:42 PM 34.5110 -96.0160 29° Northeast 469 540 31,000  Level FlightAware ADS-B
Sat 06:35:17 PM 34.5770 -95.9700 30° Northeast 470 541 31,000  Level FlightAware ADS-B
Sat 06:35:49 PM 34.6380 -95.9280 30° Northeast 472 543 31,000  Level FlightAware ADS-B
Sat 06:36:25 PM 34.7070 -95.8810 29° Northeast 471 542 31,000  Level FlightAware ADS-B
Sat 06:37:02 PM 34.7750 -95.8340 30° Northeast 472 543 31,000  Level FlightAware ADS-B
Sat 06:37:38 PM 34.8420 -95.7850 31° Northeast 470 541 31,000  Level FlightAware ADS-B
Sat 06:38:14 PM 34.9040 -95.7270 37° Northeast 469 540 31,000  Level FlightAware ADS-B
Sat 06:38:45 PM 34.9520 -95.6690 45° Northeast 467 537 31,000  Level FlightAware ADS-B
Sat 06:39:22 PM 35.0100 -95.5970 45° Northeast 468 539 31,000  Level FlightAware ADS-B
Sat 06:39:59 PM 35.0670 -95.5290 44° Northeast 470 541 31,000  Level FlightAware ADS-B
Sat 06:40:34 PM 35.1210 -95.4650 44° Northeast 471 542 31,000  Level FlightAware ADS-B
Sat 06:41:05 PM 35.1700 -95.4080 44° Northeast 472 543 31,000  Level FlightAware ADS-B
Sat 06:41:43 PM 35.2290 -95.3360 45° Northeast 473 544 31,000  Level FlightAware ADS-B
Sat 06:42:18 PM 35.2840 -95.2710 44° Northeast 473 544 31,000  Level FlightAware ADS-B
Sat 06:42:55 PM 35.3420 -95.2010 45° Northeast 474 545 31,000  Level FlightAware ADS-B
Sat 06:43:25 PM 35.3890 -95.1440 45° Northeast 475 547 31,000  Level FlightAware ADS-B
Sat 06:44:02 PM 35.4460 -95.0750 45° Northeast 475 547 31,000  Level FlightAware ADS-B
Sat 06:44:37 PM 35.5000 -95.0090 45° Northeast 474 545 31,000  Level FlightAware ADS-B
Sat 06:45:11 PM 35.5540 -94.9440 44° Northeast 473 544 31,000  Level FlightAware ADS-B
Sat 06:45:48 PM 35.6110 -94.8750 45° Northeast 473 544 31,000  Level FlightAware ADS-B
Sat 06:46:34 PM 35.6800 -94.7910 45° Northeast 473 544 31,000  Level FlightAware ADS-B
Sat 06:47:13 PM 35.7440 -94.7130 45° Northeast 475 547 31,000  Level FlightAware ADS-B
Sat 06:47:45 PM 35.7930 -94.6530 45° Northeast 475 547 31,000  Level FlightAware ADS-B
Sat 06:48:24 PM 35.8540 -94.5780 45° Northeast 475 547 31,000  Level FlightAware ADS-B
Sat 06:48:55 PM 35.9020 -94.5190 45° Northeast 475 547 31,000  Level FlightAware ADS-B
Sat 06:49:31 PM 35.9580 -94.4500 45° Northeast 474 545 31,000  Level FlightAware ADS-B
Sat 06:50:08 PM 36.0170 -94.3780 45° Northeast 475 547 31,000  Level FlightAware ADS-B
Sat 06:50:39 PM 36.0630 -94.3200 46° Northeast 475 547 31,000  Level FlightAware ADS-B
Sat 06:51:17 PM 36.1230 -94.2460 45° Northeast 475 547 31,000  Level FlightAware ADS-B
Sat 06:51:53 PM 36.1790 -94.1760 45° Northeast 474 545 31,000  Level FlightAware ADS-B
Sat 06:52:29 PM 36.2340 -94.1080 45° Northeast 473 544 31,000  Level FlightAware ADS-B
Sat 06:53:01 PM 36.2840 -94.0460 45° Northeast 473 544 31,000  Level FlightAware ADS-B
Sat 06:53:37 PM 36.3390 -93.9770 45° Northeast 473 544 31,000  Level FlightAware ADS-B
Sat 06:54:13 PM 36.3950 -93.9070 45° Northeast 473 544 31,000  Level FlightAware ADS-B
Sat 06:54:43 PM 36.4400 -93.8500 46° Northeast 473 544 31,000  Level FlightAware ADS-B
Sat 06:55:21 PM 36.4990 -93.7760 45° Northeast 472 543 31,000  Level FlightAware ADS-B
Sat 06:55:57 PM 36.5550 -93.7050 46° Northeast 473 544 31,000  Level FlightAware ADS-B
Sat 06:56:33 PM 36.6100 -93.6360 45° Northeast 470 541 31,000  Level FlightAware ADS-B
Sat 06:57:07 PM 36.6620 -93.5700 46° Northeast 470 541 31,000  Level FlightAware ADS-B
Sat 06:57:43 PM 36.7160 -93.5010 46° Northeast 470 541 31,000 417 Level FlightAware ADS-B
Sat 06:58:19 PM 36.7710 -93.4310 46° Northeast 472 543 31,500 1,075 Climbing FlightAware ADS-B
Sat 06:58:50 PM 36.8180 -93.3720 45° Northeast 469 540 32,200 1,324 Climbing FlightAware ADS-B
Sat 06:59:27 PM 36.8740 -93.3010 45° Northeast 467 537 33,000 658 Climbing FlightAware ADS-B
Sat 07:00:03 PM 36.9290 -93.2300 46° Northeast 466 536 33,000  Level FlightAware ADS-B
Sat 07:00:39 PM 36.9830 -93.1610 46° Northeast 467 537 33,000  Level FlightAware ADS-B
Sat 07:01:11 PM 37.0300 -93.1000 46° Northeast 467 537 33,000  Level FlightAware ADS-B
Sat 07:01:45 PM 37.0820 -93.0330 46° Northeast 466 536 33,000  Level FlightAware ADS-B
Sat 07:02:22 PM 37.1360 -92.9630 46° Northeast 467 537 33,000  Level FlightAware ADS-B
Sat 07:02:59 PM 37.1930 -92.8900 46° Northeast 466 536 33,000  Level FlightAware ADS-B
Sat 07:03:31 PM 37.2410 -92.8270 46° Northeast 465 535 33,000  Level FlightAware ADS-B
Sat 07:04:07 PM 37.2940 -92.7580 46° Northeast 463 533 33,000  Level FlightAware ADS-B
Sat 07:04:43 PM 37.3480 -92.6880 46° Northeast 463 533 33,000  Level FlightAware ADS-B
Sat 07:05:17 PM 37.3980 -92.6230 46° Northeast 461 531 33,000  Level FlightAware ADS-B
Sat 07:05:53 PM 37.4520 -92.5530 46° Northeast 461 531 33,000  Level FlightAware ADS-B
Sat 07:06:25 PM 37.4990 -92.4920 46° Northeast 460 529 33,000  Level FlightAware ADS-B
Sat 07:07:01 PM 37.5520 -92.4210 47° Northeast 460 529 33,000  Level FlightAware ADS-B
Sat 07:07:39 PM 37.6070 -92.3500 46° Northeast 461 531 33,000  Level FlightAware ADS-B
Sat 07:08:09 PM 37.6530 -92.2890 46° Northeast 461 531 33,000  Level FlightAware ADS-B
Sat 07:08:47 PM 37.7080 -92.2160 46° Northeast 461 531 33,000  Level FlightAware ADS-B
Sat 07:09:21 PM 37.7590 -92.1490 46° Northeast 461 531 33,000  Level FlightAware ADS-B
Sat 07:09:55 PM 37.8070 -92.0850 46° Northeast 461 531 33,000  Level FlightAware ADS-B
Sat 07:10:31 PM 37.8590 -92.0160 46° Northeast 463 533 33,000  Level FlightAware ADS-B
Sat 07:11:16 PM 37.9260 -91.9260 47° Northeast 462 532 33,000  Level FlightAware ADS-B
Sat 07:11:48 PM 37.9750 -91.8610 46° Northeast 461 531 33,000  Level FlightAware ADS-B
Sat 07:12:23 PM 38.0250 -91.7940 47° Northeast 461 531 33,000  Level FlightAware ADS-B
Sat 07:12:59 PM 38.0770 -91.7240 47° Northeast 464 534 33,000  Level FlightAware ADS-B
Sat 07:13:32 PM 38.1270 -91.6570 46° Northeast 464 534 33,000  Level FlightAware ADS-B
Sat 07:14:09 PM 38.1820 -91.5830 47° Northeast 464 534 33,000  Level FlightAware ADS-B
Sat 07:14:44 PM 38.2330 -91.5140 47° Northeast 465 535 33,000  Level FlightAware ADS-B
Sat 07:15:19 PM 38.2840 -91.4440 47° Northeast 465 535 33,000  Level FlightAware ADS-B
Sat 07:15:53 PM 38.3350 -91.3760 46° Northeast 465 535 33,000  Level FlightAware ADS-B
Sat 07:16:29 PM 38.3870 -91.3050 47° Northeast 466 536 33,000  Level FlightAware ADS-B
Sat 07:17:03 PM 38.4370 -91.2360 47° Northeast 466 536 33,000  Level FlightAware ADS-B
Sat 07:17:39 PM 38.4880 -91.1670 47° Northeast 466 536 33,000  Level FlightAware ADS-B
Sat 07:18:14 PM 38.5420 -91.0930 47° Northeast 467 537 33,000  Level FlightAware ADS-B
Sat 07:18:51 PM 38.5970 -91.0180 47° Northeast 468 539 33,000  Level FlightAware ADS-B
Sat 07:19:21 PM 38.6410 -90.9570 47° Northeast 469 540 33,000  Level FlightAware ADS-B
Sat 07:19:57 PM 38.6940 -90.8840 47° Northeast 471 542 33,000  Level FlightAware ADS-B
Sat 07:20:35 PM 38.7490 -90.8080 47° Northeast 473 544 33,000  Level FlightAware ADS-B
Sat 07:21:09 PM 38.8010 -90.7360 47° Northeast 473 544 33,000  Level FlightAware ADS-B
Sat 07:21:42 PM 38.8500 -90.6680 47° Northeast 472 543 33,000  Level FlightAware ADS-B
Sat 07:22:18 PM 38.9020 -90.5960 47° Northeast 472 543 33,000  Level FlightAware ADS-B
Sat 07:22:55 PM 38.9570 -90.5180 48° Northeast 472 543 33,000  Level FlightAware ADS-B
Sat 07:23:28 PM 39.0050 -90.4520 47° Northeast 472 543 33,000  Level FlightAware ADS-B
Sat 07:24:01 PM 39.0540 -90.3830 48° Northeast 472 543 33,000  Level FlightAware ADS-B
Sat 07:24:51 PM 39.1290 -90.2780 47° Northeast 474 545 33,000  Level FlightAware ADS-B
Sat 07:25:28 PM 39.1830 -90.2010 48° Northeast 473 544 33,000  Level FlightAware ADS-B
Sat 07:26:04 PM 39.2350 -90.1290 47° Northeast 474 545 33,000  Level FlightAware ADS-B
Sat 07:26:39 PM 39.2880 -90.0540 48° Northeast 477 549 33,000  Level FlightAware ADS-B
Sat 07:27:11 PM 39.3360 -89.9860 48° Northeast 478 550 33,000  Level FlightAware ADS-B
Sat 07:27:47 PM 39.3900 -89.9090 48° Northeast 479 551 33,000  Level FlightAware ADS-B
Sat 07:28:23 PM 39.4440 -89.8310 48° Northeast 478 550 33,000  Level FlightAware ADS-B
Sat 07:28:57 PM 39.4940 -89.7610 47° Northeast 479 551 33,000  Level FlightAware ADS-B
Sat 07:29:32 PM 39.5450 -89.6870 48° Northeast 480 552 33,000  Level FlightAware ADS-B
Sat 07:30:09 PM 39.5980 -89.6110 48° Northeast 482 555 33,000  Level FlightAware ADS-B
Sat 07:30:39 PM 39.6440 -89.5450 48° Northeast 482 555 33,000  Level FlightAware ADS-B
Sat 07:31:18 PM 39.7040 -89.4590 48° Northeast 483 556 33,000  Level FlightAware ADS-B
Sat 07:31:50 PM 39.7520 -89.3890 48° Northeast 483 556 33,000  Level FlightAware ADS-B
Sat 07:32:28 PM 39.8070 -89.3090 48° Northeast 482 555 33,000  Level FlightAware ADS-B
Sat 07:33:03 PM 39.8610 -89.2310 48° Northeast 480 552 33,000  Level FlightAware ADS-B
Sat 07:33:39 PM 39.9120 -89.1570 48° Northeast 480 552 33,000  Level FlightAware ADS-B
Sat 07:34:14 PM 39.9630 -89.0810 49° Northeast 481 554 33,000  Level FlightAware ADS-B
Sat 07:34:49 PM 40.0160 -89.0030 48° Northeast 480 552 33,000  Level FlightAware ADS-B
Sat 07:35:21 PM 40.0650 -88.9320 48° Northeast 481 554 33,000  Level FlightAware ADS-B
Sat 07:35:57 PM 40.1180 -88.8540 48° Northeast 483 556 33,000  Level FlightAware ADS-B
Sat 07:36:33 PM 40.1690 -88.7790 48° Northeast 483 556 33,000  Level FlightAware ADS-B
Sat 07:37:07 PM 40.2210 -88.7020 48° Northeast 483 556 33,000  Level FlightAware ADS-B
Sat 07:37:43 PM 40.2740 -88.6230 49° Northeast 481 554 33,000  Level FlightAware ADS-B
Sat 07:38:19 PM 40.3270 -88.5440 49° Northeast 481 554 33,000  Level FlightAware ADS-B
Sat 07:38:55 PM 40.3780 -88.4690 48° Northeast 479 551 33,000  Level FlightAware ADS-B
Sat 07:39:27 PM 40.4260 -88.3970 49° Northeast 479 551 33,000  Level FlightAware ADS-B
Sat 07:40:03 PM 40.4770 -88.3200 49° Northeast 479 551 33,000  Level FlightAware ADS-B
Sat 07:40:39 PM 40.5310 -88.2400 48° Northeast 479 551 33,000  Level FlightAware ADS-B
Sat 07:41:11 PM 40.5780 -88.1690 49° Northeast 480 552 33,000  Level FlightAware ADS-B
Sat 07:41:47 PM 40.6310 -88.0890 49° Northeast 482 555 33,000  Level FlightAware ADS-B
Sat 07:42:23 PM 40.6830 -88.0090 49° Northeast 482 555 33,000  Level FlightAware ADS-B
Sat 07:42:55 PM 40.7290 -87.9400 49° Northeast 482 555 33,000  Level FlightAware ADS-B
Sat 07:43:31 PM 40.7820 -87.8590 49° Northeast 484 557 33,000  Level FlightAware ADS-B
Sat 07:44:09 PM 40.8390 -87.7730 49° Northeast 484 557 33,000  Level FlightAware ADS-B
Sat 07:44:45 PM 40.8910 -87.6930 49° Northeast 484 557 33,000  Level FlightAware ADS-B
Sat 07:45:17 PM 40.9380 -87.6210 49° Northeast 483 556 33,000  Level FlightAware ADS-B
Sat 07:45:53 PM 40.9900 -87.5410 49° Northeast 483 556 33,000  Level FlightAware ADS-B
Sat 07:46:29 PM 41.0430 -87.4600 49° Northeast 482 555 33,000  Level FlightAware ADS-B
Sat 07:47:05 PM 41.0950 -87.3790 50° Northeast 480 552 33,000  Level FlightAware ADS-B
Sat 07:47:41 PM 41.1460 -87.3000 49° Northeast 480 552 33,000  Level FlightAware ADS-B
Sat 07:48:13 PM 41.1930 -87.2270 49° Northeast 480 552 33,000  Level FlightAware ADS-B
Sat 07:48:49 PM 41.2450 -87.1460 49° Northeast 480 552 33,000  Level FlightAware ADS-B
Sat 07:49:25 PM 41.2970 -87.0650 49° Northeast 480 552 33,000  Level FlightAware ADS-B
Sat 07:49:57 PM 41.3420 -86.9950 49° Northeast 481 554 33,000  Level FlightAware ADS-B
Sat 07:50:33 PM 41.3940 -86.9130 50° Northeast 483 556 33,000  Level FlightAware ADS-B
Sat 07:51:09 PM 41.4460 -86.8310 50° Northeast 487 560 33,000  Level FlightAware ADS-B
Sat 07:51:45 PM 41.4990 -86.7480 50° Northeast 488 562 33,000  Level FlightAware ADS-B
Sat 07:52:17 PM 41.5440 -86.6770 50° Northeast 489 563 33,000  Level FlightAware ADS-B
Sat 07:52:53 PM 41.5970 -86.5910 50° Northeast 491 565 33,000  Level FlightAware ADS-B
Sat 07:53:29 PM 41.6510 -86.5070 49° Northeast 491 565 33,000  Level FlightAware ADS-B
Sat 07:54:05 PM 41.7000 -86.4280 50° Northeast 491 565 33,000  Level FlightAware ADS-B
Sat 07:54:37 PM 41.7480 -86.3520 50° Northeast 492 566 33,000  Level FlightAware ADS-B
Sat 07:55:13 PM 41.8000 -86.2630 52° Northeast 497 572 33,000  Level FlightAware ADS-B
Sat 07:55:47 PM 41.8410 -86.1740 58° Northeast 499 574 33,000  Level FlightAware ADS-B
Sat 07:56:23 PM 41.8830 -86.0810 59° Northeast 501 577 33,000  Level FlightAware ADS-B
Sat 07:56:58 PM 41.9250 -85.9910 58° Northeast 500 575 33,000  Level FlightAware ADS-B
Sat 07:57:35 PM 41.9720 -85.8950 57° Northeast 501 577 33,000  Level FlightAware ADS-B
Sat 07:58:07 PM 42.0130 -85.8090 57° Northeast 500 575 33,000  Level FlightAware ADS-B
Sat 07:58:43 PM 42.0570 -85.7180 57° Northeast 500 575 33,000  Level FlightAware ADS-B
Sat 07:59:19 PM 42.1020 -85.6240 57° Northeast 499 574 33,000  Level FlightAware ADS-B
Sat 07:59:55 PM 42.1480 -85.5270 57° Northeast 500 575 33,000  Level FlightAware ADS-B
Sat 08:00:51 PM 42.2111 -85.4003 57° Northeast 505 581 33,000  Level Cleveland Center
Sat 08:01:51 PM 42.2864 -85.2431 57° Northeast 505 581 33,000  Level Cleveland Center
Sat 08:02:51 PM 42.3594 -85.0853 58° Northeast 500 575 33,000  Level Cleveland Center
Sat 08:03:51 PM 42.4322 -84.9272 58° Northeast 500 575 33,000  Level Cleveland Center
Sat 08:04:51 PM 42.5089 -84.7747 56° Northeast 495 570 33,000  Level Cleveland Center
Sat 08:05:51 PM 42.5919 -84.6111 55° Northeast 485 558 33,000  Level Cleveland Center
Sat 08:06:51 PM 42.6525 -84.4878 56° Northeast 485 558 33,000  Level Cleveland Center
Sat 08:07:51 PM 42.7442 -84.3011 56° Northeast 485 558 33,000  Level Cleveland Center
Sat 08:08:51 PM 42.8131 -84.1667 55° Northeast 491 565 33,000  Level Cleveland Center
Sat 08:09:51 PM 42.9047 -84.0300 47° Northeast 486 559 33,000  Level Cleveland Center
Sat 08:10:51 PM 42.9942 -83.8958 48° Northeast 480 552 33,000  Level Cleveland Center
Sat 08:11:51 PM 43.0794 -83.7556 50° Northeast 480 552 33,000  Level Cleveland Center
Sat 08:12:51 PM 43.1400 -83.5906 63° Northeast 475 547 33,000  Level Cleveland Center
Sat 08:13:51 PM 43.1964 -83.4169 66° East 480 552 33,000  Level Cleveland Center
Sat 08:14:51 PM 43.2467 -83.2394 69° East 490 564 33,000  Level Cleveland Center
Sat 08:15:51 PM 43.2942 -83.0619 70° East 496 571 33,000  Level Cleveland Center
Sat 08:20:55 PM 43.5570 -82.2010 70° East 494 568 33,000  Level FlightAware ADS-B
Sat 08:21:33 PM 43.6030 -82.1050 56° Northeast 493 567 33,000  Level FlightAware ADS-B
Sat 08:22:07 PM 43.6620 -81.9850 56° Northeast 494 568 33,000  Level FlightAware ADS-B
Sat 08:22:44 PM 43.7190 -81.8690 56° Northeast 496 571 33,000  Level FlightAware ADS-B
Sat 08:23:19 PM 43.7620 -81.7810 56° Northeast 495 570 33,000  Level FlightAware ADS-B
Sat 08:23:54 PM 43.8060 -81.6900 56° Northeast 497 572 33,000  Level FlightAware ADS-B
Sat 08:24:29 PM 43.8520 -81.5960 56° Northeast 498 573 33,000  Level FlightAware ADS-B
Sat 08:25:04 PM 43.8990 -81.4980 56° Northeast 500 575 33,000  Level FlightAware ADS-B
Sat 08:25:39 PM 43.9440 -81.4050 56° Northeast 501 577 33,000  Level FlightAware ADS-B
Sat 08:26:14 PM 43.9880 -81.3130 56° Northeast 502 578 33,000  Level FlightAware ADS-B
Sat 08:26:49 PM 44.0340 -81.2180 56° Northeast 503 579 33,000  Level FlightAware ADS-B
Sat 08:27:24 PM 44.0760 -81.1290 57° Northeast 502 578 33,000  Level FlightAware ADS-B
Sat 08:27:59 PM 44.1230 -81.0310 56° Northeast 505 581 33,000  Level FlightAware ADS-B
Sat 08:28:34 PM 44.1700 -80.9340 56° Northeast 507 583 33,000  Level FlightAware ADS-B
Sat 08:29:09 PM 44.2150 -80.8380 57° Northeast 509 586 33,000  Level FlightAware ADS-B
Sat 08:29:45 PM 44.2590 -80.7440 57° Northeast 510 587 33,000  Level FlightAware ADS-B
Sat 08:30:19 PM 44.3050 -80.6470 56° Northeast 514 592 33,000  Level FlightAware ADS-B
Sat 08:30:54 PM 44.3500 -80.5510 57° Northeast 517 595 33,000  Level FlightAware ADS-B
Sat 08:31:29 PM 44.3960 -80.4530 57° Northeast 519 597 33,000  Level FlightAware ADS-B
Sat 08:32:04 PM 44.4410 -80.3550 57° Northeast 520 598 33,000  Level FlightAware ADS-B
Sat 08:32:39 PM 44.4880 -80.2540 57° Northeast 522 601 33,000  Level FlightAware ADS-B
Sat 08:33:14 PM 44.5330 -80.1570 57° Northeast 523 602 33,000  Level FlightAware ADS-B
Sat 08:33:49 PM 44.5800 -80.0540 57° Northeast 524 603 33,000  Level FlightAware ADS-B
Sat 08:34:24 PM 44.6260 -79.9550 57° Northeast 524 603 33,000  Level FlightAware ADS-B
Sat 08:34:59 PM 44.6710 -79.8550 58° Northeast 523 602 33,000  Level FlightAware ADS-B
Sat 08:35:34 PM 44.7170 -79.7560 57° Northeast 523 602 33,000  Level FlightAware ADS-B
Sat 08:36:09 PM 44.7630 -79.6560 57° Northeast 522 601 33,000  Level FlightAware ADS-B
Sat 08:36:44 PM 44.8080 -79.5570 57° Northeast 522 601 33,000  Level FlightAware ADS-B
Sat 08:37:19 PM 44.8540 -79.4540 58° Northeast 522 601 33,000  Level FlightAware ADS-B
Sat 08:37:54 PM 44.8990 -79.3540 58° Northeast 520 598 33,000  Level FlightAware ADS-B
Sat 08:38:29 PM 44.9400 -79.2630 58° Northeast 519 597 33,000  Level FlightAware ADS-B
Sat 08:39:04 PM 44.9890 -79.1540 58° Northeast 519 597 33,000  Level FlightAware ADS-B
Sat 08:39:39 PM 45.0330 -79.0540 58° Northeast 520 598 33,000  Level FlightAware ADS-B
Sat 08:40:14 PM 45.0750 -78.9610 57° Northeast 521 600 33,000  Level FlightAware ADS-B
Sat 08:40:54 PM 45.1260 -78.8440 58° Northeast 521 600 33,000  Level FlightAware ADS-B
Sat 08:41:29 PM 45.1700 -78.7440 58° Northeast 521 600 33,000  Level FlightAware ADS-B
Sat 08:42:09 PM 45.2250 -78.6200 58° Northeast 521 600 33,000  Level FlightAware ADS-B
Sat 08:42:39 PM 45.2630 -78.5340 58° Northeast 522 601 33,000  Level FlightAware ADS-B
Sat 08:43:14 PM 45.3070 -78.4320 58° Northeast 521 600 33,000  Level FlightAware ADS-B
Sat 08:43:54 PM 45.3540 -78.3250 58° Northeast 522 601 33,000  Level FlightAware ADS-B
Sat 08:44:24 PM 45.3940 -78.2320 58° Northeast 522 601 33,000  Level FlightAware ADS-B
Sat 08:44:59 PM 45.4390 -78.1270 59° Northeast 523 602 33,000  Level FlightAware ADS-B
Sat 08:45:39 PM 45.4910 -78.0060 58° Northeast 526 605 33,000  Level FlightAware ADS-B
Sat 08:46:14 PM 45.5290 -77.9070 61° Northeast 533 613 33,000  Level FlightAware ADS-B
Sat 08:46:44 PM 45.5490 -77.8010 75° East 549 632 33,000  Level FlightAware ADS-B
Sat 08:47:24 PM 45.5650 -77.6650 80° East 552 635 33,000  Level FlightAware ADS-B
Sat 08:47:59 PM 45.5790 -77.5340 81° East 553 636 33,000  Level FlightAware ADS-B
Sat 08:48:40 PM 45.5980 -77.3670 81° East 552 635 33,000  Level FlightAware ADS-B
Sat 08:49:14 PM 45.6110 -77.2600 80° East 552 635 33,000  Level FlightAware ADS-B
Sat 08:49:49 PM 45.6250 -77.1430 80° East 553 636 33,000  Level FlightAware ADS-B
Sat 08:50:24 PM 45.6410 -77.0090 80° East 554 638 33,000  Level FlightAware ADS-B
Sat 08:50:59 PM 45.6570 -76.8800 80° East 554 638 33,000  Level FlightAware ADS-B
Sat 08:51:34 PM 45.6730 -76.7580 79° East 554 638 33,000  Level FlightAware ADS-B
Sat 08:52:09 PM 45.6890 -76.6330 80° East 555 639 33,000  Level FlightAware ADS-B
Sat 08:52:44 PM 45.7120 -76.5070 75° East 549 632 33,000  Level FlightAware ADS-B
Sat 08:53:19 PM 45.7510 -76.3980 63° Northeast 540 621 33,000  Level FlightAware ADS-B
Sat 08:53:55 PM 45.8040 -76.2940 54° Northeast 533 613 33,000  Level FlightAware ADS-B
Sat 08:54:29 PM 45.8550 -76.1970 53° Northeast 535 616 33,000  Level FlightAware ADS-B
Sat 08:55:04 PM 45.9020 -76.1070 53° Northeast 537 618 33,000  Level FlightAware ADS-B
Sat 08:55:41 PM 45.9660 -75.9800 54° Northeast 538 619 33,000  Level FlightAware ADS-B
Sat 08:56:15 PM 46.0130 -75.8850 55° Northeast 539 620 33,000  Level FlightAware ADS-B
Sat 08:56:49 PM 46.0640 -75.7840 54° Northeast 540 621 33,000  Level FlightAware ADS-B
Sat 08:57:24 PM 46.1160 -75.6820 54° Northeast 539 620 33,000  Level FlightAware ADS-B
Sat 08:57:59 PM 46.1680 -75.5830 53° Northeast 542 624 33,000  Level FlightAware ADS-B
Sat 08:58:34 PM 46.2200 -75.4830 53° Northeast 541 623 33,000  Level FlightAware ADS-B
Sat 08:59:09 PM 46.2720 -75.3820 53° Northeast 539 620 33,000  Level FlightAware ADS-B
Sat 08:59:44 PM 46.3250 -75.2790 53° Northeast 537 618 33,000  Level FlightAware ADS-B
Sat 09:00:19 PM 46.3760 -75.1780 54° Northeast 537 618 33,000  Level FlightAware ADS-B
Sat 09:00:54 PM 46.4290 -75.0760 53° Northeast 538 619 33,000  Level FlightAware ADS-B
Sat 09:01:29 PM 46.4790 -74.9760 54° Northeast 538 619 33,000  Level FlightAware ADS-B
Sat 09:02:04 PM 46.5310 -74.8740 53° Northeast 537 618 33,000  Level FlightAware ADS-B
Sat 09:02:39 PM 46.5800 -74.7760 54° Northeast 538 619 33,000  Level FlightAware ADS-B
Sat 09:03:14 PM 46.6330 -74.6710 54° Northeast 539 620 33,000  Level FlightAware ADS-B
Sat 09:03:49 PM 46.6850 -74.5670 54° Northeast 540 621 33,000  Level FlightAware ADS-B
Sat 09:04:24 PM 46.7370 -74.4630 54° Northeast 541 623 33,000  Level FlightAware ADS-B
Sat 09:04:54 PM 46.7790 -74.3780 54° Northeast 542 624 33,000  Level FlightAware ADS-B
Sat 09:05:36 PM 46.8430 -74.2480 54° Northeast 543 625 33,000  Level FlightAware ADS-B
Sat 09:06:02 PM 46.8800 -74.1730 54° Northeast 541 623 33,000  Level FlightAware ADS-B
Sat 09:06:46 PM 46.9440 -74.0430 54° Northeast 538 619 33,000  Level FlightAware ADS-B
Sat 09:07:19 PM 46.9920 -73.9450 54° Northeast 538 619 33,000  Level FlightAware ADS-B
Sat 09:07:54 PM 47.0430 -73.8400 54° Northeast 539 620 33,000  Level FlightAware ADS-B
Sat 09:08:29 PM 47.0940 -73.7340 55° Northeast 539 620 33,000  Level FlightAware ADS-B
Sat 09:09:04 PM 47.1440 -73.6320 54° Northeast 539 620 33,000  Level FlightAware ADS-B
Sat 09:09:39 PM 47.1950 -73.5250 55° Northeast 540 621 33,000  Level FlightAware ADS-B
Sat 09:10:14 PM 47.2470 -73.4170 55° Northeast 541 623 33,000  Level FlightAware ADS-B
Sat 09:10:49 PM 47.2980 -73.3110 55° Northeast 542 624 33,000  Level FlightAware ADS-B
Sat 09:11:10 PM 47.3270 -73.2490 55° Northeast 542 624 33,000  Level FlightAware ADS-B
Sat 09:11:55 PM 47.3930 -73.1100 55° Northeast 550 633 33,000  Level FlightAware ADS-B
Sat 09:12:30 PM 47.4440 -73.0030 55° Northeast 550 633 33,000  Level FlightAware ADS-B
Sat 09:13:05 PM 47.4950 -72.8950 55° Northeast 551 634 33,000  Level FlightAware ADS-B
Sat 09:13:40 PM 47.5450 -72.7880 55° Northeast 553 636 33,000  Level FlightAware ADS-B
Sat 09:14:15 PM 47.5970 -72.6770 55° Northeast 554 638 33,000  Level FlightAware ADS-B
Sat 09:14:50 PM 47.6470 -72.5690 55° Northeast 555 639 33,000  Level FlightAware ADS-B
Sat 09:15:25 PM 47.6980 -72.4600 55° Northeast 555 639 33,000  Level FlightAware ADS-B
Sat 09:16:00 PM 47.7480 -72.3500 56° Northeast 554 638 33,000  Level FlightAware ADS-B
Sat 09:16:35 PM 47.7980 -72.2420 55° Northeast 555 639 33,000  Level FlightAware ADS-B
Sat 09:17:10 PM 47.8490 -72.1300 56° Northeast 557 641 33,000  Level FlightAware ADS-B
Sat 09:17:45 PM 47.8980 -72.0220 56° Northeast 557 641 33,000  Level FlightAware ADS-B
Sat 09:18:20 PM 47.9500 -71.9100 55° Northeast 556 640 33,000  Level FlightAware ADS-B
Sat 09:18:55 PM 48.0000 -71.7990 56° Northeast 555 639 33,000  Level FlightAware ADS-B
Sat 09:19:30 PM 48.0500 -71.6880 56° Northeast 555 639 33,000  Level FlightAware ADS-B
Sat 09:20:05 PM 48.1000 -71.5770 56° Northeast 554 638 33,000  Level FlightAware ADS-B
Sat 09:20:40 PM 48.1490 -71.4660 56° Northeast 554 638 33,000  Level FlightAware ADS-B
Sat 09:21:15 PM 48.1980 -71.3560 56° Northeast 554 638 33,000  Level FlightAware ADS-B
Sat 09:21:50 PM 48.2470 -71.2450 56° Northeast 554 638 33,000  Level FlightAware ADS-B
Sat 09:22:25 PM 48.2910 -71.1460 56° Northeast 554 638 33,000  Level FlightAware ADS-B
Sat 09:22:57 PM 48.3400 -71.0330 57° Northeast 554 638 33,000  Level FlightAware ADS-B
Sat 09:23:33 PM 48.3890 -70.9220 56° Northeast 554 638 33,000  Level FlightAware ADS-B
Sat 09:24:09 PM 48.4430 -70.7980 57° Northeast 555 639 33,000  Level FlightAware ADS-B
Sat 09:24:45 PM 48.4910 -70.6870 57° Northeast 555 639 33,000  Level FlightAware ADS-B
Sat 09:25:17 PM 48.5350 -70.5860 57° Northeast 556 640 33,000  Level FlightAware ADS-B
Sat 09:25:54 PM 48.5870 -70.4660 57° Northeast 556 640 33,000  Level FlightAware ADS-B
Sat 09:26:30 PM 48.6360 -70.3520 57° Northeast 557 641 33,000  Level FlightAware ADS-B
Sat 09:27:06 PM 48.6880 -70.2290 57° Northeast 557 641 33,000  Level FlightAware ADS-B
Sat 09:27:40 PM 48.7360 -70.1170 57° Northeast 557 641 33,000  Level FlightAware ADS-B
Sat 09:28:15 PM 48.7830 -70.0060 57° Northeast 557 641 33,000  Level FlightAware ADS-B
Sat 09:29:08 PM 48.8470 -69.8550 57° Northeast 558 642 33,000  Level FlightAware ADS-B
Sat 09:29:52 PM 48.9150 -69.6940 57° Northeast 558 642 33,000  Level FlightAware ADS-B
Sat 09:30:28 PM 48.9580 -69.5930 57° Northeast 558 642 33,000  Level FlightAware ADS-B
Sat 09:31:04 PM 49.0010 -69.4920 57° Northeast 558 642 33,000  Level FlightAware ADS-B
Sat 09:31:40 PM 49.0440 -69.3910 57° Northeast 558 642 33,000  Level FlightAware ADS-B
Sat 09:32:16 PM 49.0870 -69.2900 57° Northeast 558 642 33,000  Level FlightAware ADS-B
Sat 09:32:50 PM 49.1270 -69.1940 57° Northeast 558 642 33,000  Level FlightAware ADS-B
Sat 09:33:26 PM 49.1700 -69.0930 57° Northeast 558 642 33,000  Level FlightAware ADS-B
Sat 09:34:03 PM 49.2140 -68.9890 57° Northeast 558 642 33,000  Level FlightAware ADS-B
Sat 09:34:39 PM 49.2570 -68.8870 57° Northeast 558 642 33,000  Level FlightAware ADS-B
Sat 09:35:15 PM 49.3000 -68.7860 57° Northeast 558 642 33,000  Level FlightAware ADS-B
Sat 09:35:51 PM 49.3430 -68.6840 57° Northeast 558 642 33,000  Level FlightAware ADS-B
Sat 09:36:27 PM 49.3860 -68.5820 57° Northeast 558 642 33,000  Level FlightAware ADS-B
Sat 09:37:04 PM 49.4310 -68.4780 56° Northeast 558 642 33,000  Level FlightAware ADS-B
Sat 09:37:28 PM 49.4590 -68.4100 58° Northeast 558 642 33,000  Level FlightAware ADS-B
Sat 09:38:04 PM 49.5020 -68.3080 57° Northeast 558 642 33,000  Level FlightAware ADS-B
Sat 09:38:40 PM 49.5450 -68.2060 57° Northeast 558 642 33,000  Level FlightAware ADS-B
Sat 09:39:17 PM 49.5900 -68.1010 57° Northeast 558 642 33,000  Level FlightAware ADS-B
Sat 09:40:10 PM 49.7500 -67.6000 57° Northeast 560 644 33,000  Level Gander Center
Sat 09:41:10 PM 49.8167 -67.3833 64° Northeast 560 644 33,000  Level Gander Center
Sat 09:42:10 PM 49.9000 -67.1833 57° Northeast 570 656 33,000  Level Gander Center
Sat 09:43:10 PM 49.9833 -66.9500 61° Northeast 570 656 33,000  Level Gander Center
Sat 09:44:10 PM 50.0500 -66.7500 63° Northeast 570 656 33,000  Level Gander Center
Sat 09:45:10 PM 50.1500 -66.5333 54° Northeast 570 656 33,000  Level Gander Center
Sat 09:46:10 PM 50.2333 -66.3333 57° Northeast 570 656 33,000  Level Gander Center
Sat 09:47:10 PM 50.3000 -66.1000 66° East 570 656 33,000  Level Gander Center
Sat 09:48:10 PM 50.3833 -65.8667 61° Northeast 570 656 33,000  Level Gander Center
Sat 09:49:10 PM 50.4500 -65.6667 62° Northeast 570 656 33,000  Level Gander Center
Sat 09:50:10 PM 50.5500 -65.4333 56° Northeast 570 656 33,000  Level Gander Center
Sat 09:51:10 PM 50.6167 -65.2333 62° Northeast 570 656 33,000  Level Gander Center
Sat 09:52:10 PM 50.7000 -65.0333 57° Northeast 570 656 33,000  Level Gander Center
Sat 09:53:10 PM 50.7667 -64.8000 66° East 570 656 33,000  Level Gander Center
Sat 09:54:10 PM 50.8333 -64.6000 62° Northeast 570 656 33,000  Level Gander Center
Sat 09:55:10 PM 50.9167 -64.3667 60° Northeast 570 656 33,000  Level Gander Center
Sat 09:56:10 PM 50.9833 -64.1500 64° Northeast 570 656 33,000  Level Gander Center
Sat 09:57:10 PM 51.0833 -63.9167 56° Northeast 570 656 33,000  Level Gander Center
Sat 09:58:10 PM 51.1500 -63.6833 65° Northeast 570 656 33,000  Level Gander Center
Sat 09:59:10 PM 51.2167 -63.4500 65° Northeast 570 656 33,000  Level Gander Center
Sat 10:00:10 PM 51.2833 -63.2333 64° Northeast 570 656 33,000  Level Gander Center
Sat 10:01:10 PM 51.3667 -63.0167 58° Northeast 580 667 33,000  Level Gander Center
Sat 10:02:10 PM 51.4333 -62.7833 65° Northeast 570 656 33,000  Level Gander Center
Sat 10:03:10 PM 51.5000 -62.5500 65° Northeast 580 667 33,000  Level Gander Center
Sat 10:04:10 PM 51.5833 -62.3000 62° Northeast 570 656 33,000  Level Gander Center
Sat 10:05:10 PM 51.6500 -62.0833 64° Northeast 580 667 33,000  Level Gander Center
Sat 10:06:10 PM 51.7167 -61.8833 62° Northeast 570 656 33,000  Level Gander Center
Sat 10:07:10 PM 51.7833 -61.6333 67° East 570 656 33,000  Level Gander Center
Sat 10:08:10 PM 51.8500 -61.3833 67° East 580 667 33,000  Level Gander Center
Sat 10:09:10 PM 51.9333 -61.1500 60° Northeast 570 656 33,000  Level Gander Center
Sat 10:10:10 PM 52.0000 -60.9333 63° Northeast 570 656 33,000  Level Gander Center
Sat 10:11:10 PM 52.0667 -60.6833 66° East 570 656 33,000  Level Gander Center
Sat 10:12:10 PM 52.1333 -60.4667 63° Northeast 580 667 33,000 -500 Level Gander Center
Sat 10:13:10 PM 52.2333 -60.2167 57° Northeast 580 667 32,000 -500 Descending Gander Center
Sat 10:14:10 PM 52.3000 -60.0000 63° Northeast 580 667 32,000  Level Gander Center
Sat 10:15:10 PM 52.3833 -59.7833 58° Northeast 580 667 32,000  Level Gander Center
Sat 10:16:10 PM 52.4667 -59.5500 60° Northeast 580 667 32,000  Level Gander Center
Sat 10:17:10 PM 52.5500 -59.3000 61° Northeast 580 667 32,000  Level Gander Center
Sat 10:18:10 PM 52.6167 -59.0833 63° Northeast 580 667 32,000  Level Gander Center
Sat 10:19:10 PM 52.6833 -58.8500 65° Northeast 580 667 32,000  Level Gander Center
Sat 10:20:10 PM 52.7667 -58.6000 61° Northeast 580 667 32,000  Level Gander Center
Sat 10:21:10 PM 52.8500 -58.3833 57° Northeast 580 667 32,000  Level Gander Center
Sat 10:22:10 PM 52.9167 -58.1167 67° East 580 667 32,000  Level Gander Center
Sat 10:23:10 PM 53.0000 -57.9000 57° Northeast 580 667 32,000  Level Gander Center
Sat 10:24:10 PM 53.0667 -57.6333 67° East 580 667 32,000  Level Gander Center
Sat 10:25:10 PM 53.1333 -57.4000 64° Northeast 580 667 32,000  Level Gander Center
Sat 10:26:10 PM 53.2333 -57.1500 56° Northeast 580 667 32,000  Level Gander Center
Sat 10:27:10 PM 53.2833 -56.9167 70° East 580 667 32,000  Level Gander Center
Sat 10:28:10 PM 53.3500 -56.6500 67° East 580 667 32,000  Level Gander Center
Sat 10:29:10 PM 53.4333 -56.4333 57° Northeast 580 667 32,000  Level Gander Center
Sat 10:30:10 PM 53.5000 -56.1667 67° East 580 667 32,000  Level Gander Center
Sat 10:31:10 PM 53.5833 -55.9333 59° Northeast 580 667 32,000  Level Gander Center
Sat 10:32:10 PM 53.6333 -55.7000 70° East 580 667 32,000  Level Gander Center
Sat 10:33:10 PM 53.7000 -55.4333 67° East 580 667 32,000  Level Gander Center
Sat 10:34:10 PM 53.7833 -55.2000 59° Northeast 580 667 32,000  Level Gander Center
Sat 10:35:10 PM 53.8500 -54.9500 66° East 580 667 32,000  Level Gander Center
Sat 10:36:10 PM 53.9167 -54.7167 64° Northeast 580 667 32,000  Level Gander Center
Sat 10:37:10 PM 53.9667 -54.4500 72° East 580 667 32,000  Level Gander Center
Sat 10:38:10 PM 54.0500 -54.2167 59° Northeast 580 667 32,000  Level Gander Center
Sat 10:39:10 PM 54.1000 -53.9500 72° East 590 679 32,000  Level Gander Center
Sat 10:40:10 PM 54.1667 -53.6833 67° East 590 679 32,000  Level Gander Center
Sat 10:41:10 PM 54.2333 -53.4167 67° East 590 679 32,000  Level Gander Center
Sat 10:42:10 PM 54.2833 -53.1667 71° East 590 679 32,000  Level Gander Center
Sat 10:43:08 PM 54.3500 -52.9000 67° East 580 667 32,000  Level Gander Center
Sat 10:43:10 PM 54.3500 -52.9000 67° East 590 679 32,000  Level Gander Center
Sat 10:44:08 PM 54.4167 -52.6500 65° Northeast 590 679 32,000  Level Gander Center
Sat 10:45:08 PM 54.4667 -52.3833 72° East 590 679 32,000  Level Gander Center
Sat 10:46:08 PM 54.5333 -52.1000 68° East 590 679 32,000  Level Gander Center
Sat 10:47:08 PM 54.5833 -51.9000 67° East 590 679 32,000  Level Gander Center
Sat 10:48:08 PM 54.6500 -51.6500 65° Northeast 590 679 32,000  Level Gander Center
Sat 10:49:08 PM 54.6833 -51.3667 78° East 590 679 32,000  Level Gander Center
Sat 10:50:08 PM 54.7500 -51.1000 66° East 590 679 32,000  Level Gander Center
Sat 10:52:10 PM 54.8833 -50.5000 69° East 590 679 32,000  Level Gander Center
Sat 10:53:10 PM 54.9167 -50.3000 74° East 590 679 32,000 Level Gander Center
Sat 10:55:00 PM 55.0181 -49.8739 76° East  Level FlightAware Approximate
Sat 11:02:00 PM 55.2468 -48.1837 76° East  Level FlightAware Approximate
Sat 11:03:00 PM 55.2775 -47.9407 77° East  Level FlightAware Approximate
Sat 11:04:00 PM 55.3078 -47.6973 78° East  Level FlightAware Approximate
Sat 11:05:00 PM 55.3376 -47.4536 78° East  Level FlightAware Approximate
Sat 11:06:00 PM 55.3669 -47.2095 78° East  Level FlightAware Approximate
Sat 11:07:00 PM 55.3957 -46.9650 78° East  Level FlightAware Approximate
Sat 11:08:00 PM 55.4240 -46.7202 78° East  Level FlightAware Approximate
Sat 11:09:00 PM 55.4519 -46.4750 79° East  Level FlightAware Approximate
Sat 11:10:00 PM 55.4792 -46.2295 79° East  Level FlightAware Approximate
Sat 11:11:00 PM 55.5061 -45.9837 79° East  Level FlightAware Approximate
Sat 11:12:00 PM 55.5324 -45.7375 79° East  Level FlightAware Approximate
Sat 11:13:00 PM 55.5583 -45.4910 79° East  Level FlightAware Approximate
Sat 11:14:00 PM 55.5837 -45.2441 80° East  Level FlightAware Approximate
Sat 11:15:00 PM 55.6085 -44.9970 80° East  Level FlightAware Approximate
Sat 11:16:00 PM 55.6329 -44.7495 80° East  Level FlightAware Approximate
Sat 11:17:00 PM 55.6568 -44.5017 80° East  Level FlightAware Approximate
Sat 11:18:00 PM 55.6802 -44.2537 80° East  Level FlightAware Approximate
Sat 11:19:00 PM 55.7030 -44.0053 81° East  Level FlightAware Approximate
Sat 11:20:00 PM 55.7254 -43.7567 81° East  Level FlightAware Approximate
Sat 11:21:00 PM 55.7473 -43.5077 81° East  Level FlightAware Approximate
Sat 11:22:00 PM 55.7687 -43.2585 81° East  Level FlightAware Approximate
Sat 11:23:00 PM 55.7895 -43.0090 81° East  Level FlightAware Approximate
Sat 11:24:00 PM 55.8099 -42.7593 82° East  Level FlightAware Approximate
Sat 11:25:00 PM 55.8297 -42.5093 82° East  Level FlightAware Approximate
Sat 11:26:00 PM 55.8491 -42.2590 82° East  Level FlightAware Approximate
Sat 11:27:00 PM 55.8679 -42.0085 82° East  Level FlightAware Approximate
Sat 11:28:00 PM 55.8862 -41.7578 82° East  Level FlightAware Approximate
Sat 11:29:00 PM 55.9041 -41.5068 83° East  Level FlightAware Approximate
Sat 11:30:00 PM 55.9214 -41.2556 83° East  Level FlightAware Approximate
Sat 11:31:00 PM 55.9382 -41.0037 83° East  Level FlightAware Approximate
Sat 11:32:00 PM 55.9545 -40.7516 83° East  Level FlightAware Approximate
Sat 11:33:00 PM 55.9703 -40.4992 84° East  Level FlightAware Approximate
Sat 11:34:00 PM 55.9856 -40.2466 84° East  Level FlightAware Approximate
Sat 11:35:00 PM 56.0008 -39.9941 76° East  Level FlightAware Approximate
Sat 11:36:00 PM 56.0358 -39.7476 76° East  Level FlightAware Approximate
Sat 11:37:00 PM 56.0702 -39.5006 76° East  Level FlightAware Approximate
Sat 11:38:00 PM 56.1041 -39.2533 76° East  Level FlightAware Approximate
Sat 11:39:00 PM 56.1376 -39.0055 76° East  Level FlightAware Approximate
Sat 11:40:00 PM 56.1705 -38.7572 76° East  Level FlightAware Approximate
Sat 11:41:00 PM 56.2030 -38.5085 77° East  Level FlightAware Approximate
Sat 11:42:00 PM 56.2349 -38.2595 77° East  Level FlightAware Approximate
Sat 11:43:00 PM 56.2664 -38.0100 77° East  Level FlightAware Approximate
Sat 11:44:00 PM 56.2973 -37.7601 77° East  Level FlightAware Approximate
Sat 11:45:00 PM 56.3278 -37.5098 78° East  Level FlightAware Approximate
Sat 11:46:00 PM 56.3577 -37.2591 78° East  Level FlightAware Approximate
Sat 11:47:00 PM 56.3871 -37.0080 78° East  Level FlightAware Approximate
Sat 11:48:00 PM 56.4160 -36.7565 78° East  Level FlightAware Approximate
Sat 11:49:00 PM 56.4444 -36.5046 78° East  Level FlightAware Approximate
Sat 11:50:00 PM 56.4723 -36.2524 79° East  Level FlightAware Approximate
Sat 11:51:00 PM 56.4997 -35.9998 79° East  Level FlightAware Approximate
Sat 11:52:00 PM 56.5266 -35.7468 79° East  Level FlightAware Approximate
Sat 11:53:00 PM 56.5530 -35.4935 79° East  Level FlightAware Approximate
Sat 11:54:00 PM 56.5788 -35.2399 79° East  Level FlightAware Approximate
Sat 11:55:00 PM 56.6041 -34.9859 80° East  Level FlightAware Approximate
Sat 11:56:00 PM 56.6289 -34.7315 80° East  Level FlightAware Approximate
Sat 11:57:00 PM 56.6532 -34.4768 80° East  Level FlightAware Approximate
Sat 11:58:00 PM 56.6772 -34.2219 80° East  Level FlightAware Approximate
Sat 11:59:00 PM 56.7010 -33.9667 80° East  Level FlightAware Approximate
Sun 12:00:00 AM 56.7242 -33.7112 80° East  Level FlightAware Approximate
Sun 12:01:00 AM 56.7469 -33.4554 81° East  Level FlightAware Approximate
Sun 12:02:00 AM 56.7690 -33.1993 81° East  Level FlightAware Approximate
Sun 12:03:00 AM 56.7907 -32.9429 81° East  Level FlightAware Approximate
Sun 12:04:00 AM 56.8118 -32.6862 81° East  Level FlightAware Approximate
Sun 12:05:00 AM 56.8324 -32.4292 82° East  Level FlightAware Approximate
Sun 12:06:00 AM 56.8525 -32.1714 82° East  Level FlightAware Approximate
Sun 12:07:00 AM 56.8721 -31.9134 82° East  Level FlightAware Approximate
Sun 12:08:00 AM 56.8911 -31.6550 82° East  Level FlightAware Approximate
Sun 12:09:00 AM 56.9096 -31.3964 82° East  Level FlightAware Approximate
Sun 12:10:00 AM 56.9276 -31.1376 83° East  Level FlightAware Approximate
Sun 12:11:00 AM 56.9450 -30.8785 83° East  Level FlightAware Approximate
Sun 12:12:00 AM 56.9619 -30.6192 83° East  Level FlightAware Approximate
Sun 12:13:00 AM 56.9782 -30.3596 83° East  Level FlightAware Approximate
Sun 12:14:00 AM 56.9941 -30.0998 84° East  Level FlightAware Approximate
Sun 12:15:00 AM 57.0058 -29.8393 86° East  Level FlightAware Approximate
Sun 12:16:00 AM 57.0147 -29.5782 86° East  Level FlightAware Approximate
Sun 12:17:00 AM 57.0231 -29.3170 87° East  Level FlightAware Approximate
Sun 12:18:00 AM 57.0310 -29.0557 87° East  Level FlightAware Approximate
Sun 12:19:00 AM 57.0383 -28.7943 87° East  Level FlightAware Approximate
Sun 12:20:00 AM 57.0450 -28.5328 87° East  Level FlightAware Approximate
Sun 12:21:00 AM 57.0513 -28.2712 87° East  Level FlightAware Approximate
Sun 12:22:00 AM 57.0569 -28.0096 88° East  Level FlightAware Approximate
Sun 12:23:00 AM 57.0621 -27.7478 88° East  Level FlightAware Approximate
Sun 12:24:00 AM 57.0666 -27.4860 88° East  Level FlightAware Approximate
Sun 12:25:00 AM 57.0707 -27.2241 88° East  Level FlightAware Approximate
Sun 12:26:00 AM 57.0742 -26.9622 88° East  Level FlightAware Approximate
Sun 12:27:00 AM 57.0771 -26.7002 89° East  Level FlightAware Approximate
Sun 12:28:00 AM 57.0795 -26.4382 89° East  Level FlightAware Approximate
Sun 12:29:00 AM 57.0814 -26.1762 89° East  Level FlightAware Approximate
Sun 12:30:00 AM 57.0827 -25.9141 89° East  Level FlightAware Approximate
Sun 12:31:00 AM 57.0837 -25.6520 89° East  Level FlightAware Approximate
Sun 12:32:00 AM 57.0855 -25.3899 89° East  Level FlightAware Approximate
Sun 12:33:00 AM 57.0867 -25.1278 89° East  Level FlightAware Approximate
Sun 12:34:00 AM 57.0873 -24.8657 90° East  Level FlightAware Approximate
Sun 12:35:00 AM 57.0874 -24.6036 90° East  Level FlightAware Approximate
Sun 12:36:00 AM 57.0870 -24.3415 90° East  Level FlightAware Approximate
Sun 12:37:00 AM 57.0860 -24.0794 90° East  Level FlightAware Approximate
Sun 12:38:00 AM 57.0845 -23.8173 91° East  Level FlightAware Approximate
Sun 12:39:00 AM 57.0824 -23.5553 91° East  Level FlightAware Approximate
Sun 12:40:00 AM 57.0798 -23.2927 91° East  Level FlightAware Approximate
Sun 12:41:00 AM 57.0766 -23.0302 91° East  Level FlightAware Approximate
Sun 12:42:00 AM 57.0728 -22.7677 91° East  Level FlightAware Approximate
Sun 12:43:00 AM 57.0686 -22.5053 92° East  Level FlightAware Approximate
Sun 12:44:00 AM 57.0637 -22.2429 92° East  Level FlightAware Approximate
Sun 12:45:00 AM 57.0584 -21.9807 92° East  Level FlightAware Approximate
Sun 12:46:00 AM 57.0524 -21.7185 92° East  Level FlightAware Approximate
Sun 12:47:00 AM 57.0460 -21.4564 92° East  Level FlightAware Approximate
Sun 12:48:00 AM 57.0390 -21.1943 93° East  Level FlightAware Approximate
Sun 12:49:00 AM 57.0314 -20.9324 93° East  Level FlightAware Approximate
Sun 12:50:00 AM 57.0233 -20.6706 93° East  Level FlightAware Approximate
Sun 12:51:00 AM 57.0146 -20.4089 93° East  Level FlightAware Approximate
Sun 12:52:00 AM 57.0054 -20.1474 94° East  Level FlightAware Approximate
Sun 12:53:00 AM 56.9749 -19.8954 114° Southeast  Level FlightAware Approximate
Sun 12:54:00 AM 56.9170 -19.6562 114° Southeast  Level FlightAware Approximate
Sun 12:55:00 AM 56.8587 -19.4178 114° Southeast  Level FlightAware Approximate
Sun 12:56:00 AM 56.8000 -19.1800 114° Southeast  Level FlightAware Approximate
Sun 12:57:00 AM 56.7408 -18.9431 114° Southeast  Level FlightAware Approximate
Sun 12:58:00 AM 56.6811 -18.7069 115° Southeast  Level FlightAware Approximate
Sun 12:59:00 AM 56.6209 -18.4709 115° Southeast  Level FlightAware Approximate
Sun 01:00:00 AM 56.5602 -18.2358 115° Southeast  Level FlightAware Approximate
Sun 01:01:00 AM 56.4991 -18.0013 115° Southeast  Level FlightAware Approximate
Sun 01:02:00 AM 56.4375 -17.7677 115° Southeast  Level FlightAware Approximate
Sun 01:03:00 AM 56.3756 -17.5347 116° Southeast  Level FlightAware Approximate
Sun 01:04:00 AM 56.3131 -17.3026 116° Southeast  Level FlightAware Approximate
Sun 01:05:00 AM 56.2503 -17.0712 116° Southeast  Level FlightAware Approximate
Sun 01:05:50 AM 55.3110 -12.8680 116° Southeast 569 655 33,000  Level FlightAware ADS-B
Sun 01:06:00 AM 56.1870 -16.8405 116° Southeast  Level FlightAware Approximate
Sun 01:06:20 AM 55.2700 -12.7540 122° Southeast 568 654 33,000  Level FlightAware ADS-B
Sun 01:06:55 AM 55.2180 -12.6120 123° Southeast 567 652 33,000  Level FlightAware ADS-B
Sun 01:07:30 AM 55.1710 -12.4820 122° Southeast 567 652 33,000  Level FlightAware ADS-B
Sun 01:08:10 AM 55.1140 -12.3290 123° Southeast 568 654 33,000  Level FlightAware ADS-B
Sun 01:08:40 AM 55.0710 -12.2130 123° Southeast 569 655 33,000  Level FlightAware ADS-B
Sun 01:09:15 AM 55.0200 -12.0760 123° Southeast 571 657 33,000  Level FlightAware ADS-B
Sun 01:09:55 AM 54.9640 -11.9240 123° Southeast 568 654 33,000  Level FlightAware ADS-B
Sun 01:10:35 AM 54.9060 -11.7700 123° Southeast 569 655 33,000  Level FlightAware ADS-B
Sun 01:11:17 AM 54.8620 -11.6540 123° Southeast 570 656 33,000  Level FlightAware ADS-B
Sun 01:11:50 AM 54.7960 -11.4810 123° Southeast 573 659 33,000  Level FlightAware ADS-B
Sun 01:12:25 AM 54.7450 -11.3470 123° Southeast 578 665 33,000  Level FlightAware ADS-B
Sun 01:13:00 AM 54.6920 -11.2080 123° Southeast 576 663 33,000  Level FlightAware ADS-B
Sun 01:13:35 AM 54.6410 -11.0780 124° Southeast 573 659 33,000  Level FlightAware ADS-B
Sun 01:14:10 AM 54.5890 -10.9430 124° Southeast 567 652 33,000  Level FlightAware ADS-B
Sun 01:14:45 AM 54.5380 -10.8130 124° Southeast 571 657 33,000  Level FlightAware ADS-B
Sun 01:15:20 AM 54.4860 -10.6820 124° Southeast 571 657 33,000  Level FlightAware ADS-B
Sun 01:15:55 AM 54.4350 -10.5520 124° Southeast 573 659 33,000  Level FlightAware ADS-B
Sun 01:16:30 AM 54.3820 -10.4180 124° Southeast 573 659 33,000  Level FlightAware ADS-B
Sun 01:17:05 AM 54.3310 -10.2890 124° Southeast 574 661 33,000  Level FlightAware ADS-B
Sun 01:17:40 AM 54.2770 -10.1560 125° Southeast 572 658 33,000  Level FlightAware ADS-B
Sun 01:18:15 AM 54.2250 -10.0270 125° Southeast 574 661 33,000  Level FlightAware ADS-B
Sun 01:18:51 AM 54.1710 -9.8930 125° Southeast 573 659 33,000  Level FlightAware ADS-B
Sun 01:19:25 AM 54.1210 -9.7690 124° Southeast 572 658 33,000  Level FlightAware ADS-B
Sun 01:20:00 AM 54.0650 -9.6330 125° Southeast 572 658 33,000  Level FlightAware ADS-B
Sun 01:20:35 AM 54.0120 -9.5060 125° Southeast 573 659 33,000  Level FlightAware ADS-B
Sun 01:21:05 AM 53.9660 -9.3930 125° Southeast 573 659 33,000  Level FlightAware ADS-B
Sun 01:21:36 AM 53.9180 -9.2800 126° Southeast 580 667 33,000  Level FlightAware ADS-B
Sun 01:22:15 AM 53.8580 -9.1340 125° Southeast 581 669 33,000  Level FlightAware ADS-B
Sun 01:22:50 AM 53.8040 -9.0070 126° Southeast 580 667 33,000  Level FlightAware ADS-B
Sun 01:23:25 AM 53.7490 -8.8760 125° Southeast 578 665 33,000  Level FlightAware ADS-B
Sun 01:23:56 AM 53.6982 -8.7569 125° Southeast 488 562 33,000  Level FlightAware UK
Sun 01:24:05 AM 53.6870 -8.7310 125° Southeast 579 666 33,000  Level FlightAware ADS-B
Sun 01:24:40 AM 53.6330 -8.6020 125° Southeast 581 669 33,000  Level FlightAware ADS-B
Sun 01:25:15 AM 53.5780 -8.4740 126° Southeast 583 671 33,000  Level FlightAware ADS-B
Sun 01:25:50 AM 53.5220 -8.3470 127° Southeast 579 666 33,000 -85 Level FlightAware ADS-B
Sun 01:26:26 AM 53.4618 -8.2070 127° Southeast 492 566 32,900  Descending FlightAware UK
Sun 01:26:26 AM 53.4650 -8.2140 127° Southeast 579 666 33,000  Climbing FlightAware ADS-B
Sun 01:26:56 AM 53.4141 -8.0968 127° Southeast 486 559 32,900  Descending FlightAware UK
Sun 01:27:00 AM 53.4100 -8.0890 127° Southeast 578 665 33,000 154 Climbing FlightAware ADS-B
Sun 01:27:35 AM 53.3540 -7.9610 126° Southeast 581 669 33,000  Level FlightAware ADS-B
Sun 01:28:10 AM 53.2990 -7.8350 126° Southeast 583 671 33,000  Level FlightAware ADS-B
Sun 01:28:45 AM 53.2420 -7.7060 126° Southeast 589 678 33,000  Level FlightAware ADS-B
Sun 01:29:20 AM 53.1850 -7.5790 127° Southeast 589 678 33,000  Level FlightAware ADS-B
Sun 01:29:55 AM 53.1280 -7.4510 127° Southeast 582 670 33,000 -167 Level FlightAware ADS-B
Sun 01:29:56 AM 53.1245 -7.4416 127° Southeast 492 566 32,900 -194 Descending FlightAware UK
Sun 01:30:26 AM 53.0757 -7.3333 127° Southeast 492 566 32,900 176 Level FlightAware UK
Sun 01:30:30 AM 53.0720 -7.3250 127° Southeast 585 673 33,000 154 Climbing FlightAware ADS-B
Sun 01:31:05 AM 53.0150 -7.2000 127° Southeast 577 664 33,000  Level FlightAware ADS-B
Sun 01:31:40 AM 52.9610 -7.0800 127° Southeast 570 656 33,000  Level FlightAware ADS-B
Sun 01:32:15 AM 52.9040 -6.9560 127° Southeast 567 652 33,000  Level FlightAware ADS-B
Sun 01:32:50 AM 52.8500 -6.8380 127° Southeast 566 651 33,000  Level FlightAware ADS-B
Sun 01:33:27 AM 52.7875 -6.7009 127° Southeast 494 568 33,000  Level FlightAware UK
Sun 01:33:33 AM 52.7780 -6.6810 127° Southeast 566 651 33,000  Level FlightAware ADS-B
Sun 01:34:10 AM 52.7210 -6.5570 127° Southeast 563 648 33,000  Level FlightAware ADS-B
Sun 01:34:42 AM 52.6700 -6.4490 128° Southeast 558 642 33,000  Level FlightAware ADS-B
Sun 01:35:18 AM 52.6150 -6.3320 128° Southeast 552 635 33,000  Level FlightAware ADS-B
Sun 01:35:54 AM 52.5570 -6.2080 128° Southeast 554 638 33,000 -87 Level FlightAware ADS-B
Sun 01:36:27 AM 52.5054 -6.0966 128° Southeast 496 571 32,900  Descending FlightAware UK
Sun 01:36:31 AM 52.5010 -6.0880 128° Southeast 550 633 33,000 167 Climbing FlightAware ADS-B
Sun 01:37:03 AM 52.4510 -5.9830 128° Southeast 547 629 33,000  Level FlightAware ADS-B
Sun 01:37:35 AM 52.4000 -5.8750 128° Southeast 545 627 33,000  Level FlightAware ADS-B
Sun 01:38:15 AM 52.3390 -5.7480 128° Southeast 544 626 33,000  Level FlightAware ADS-B
Sun 01:38:50 AM 52.2890 -5.6290 124° Southeast 540 621 33,000  Level FlightAware ADS-B
Sun 01:39:22 AM 52.2540 -5.5200 118° Southeast 534 615 33,000  Level FlightAware ADS-B
Sun 01:39:59 AM 52.2150 -5.3810 115° Southeast 530 610 33,000  Level FlightAware ADS-B
Sun 01:40:34 AM 52.1800 -5.2540 114° Southeast 528 608 33,000 -86 Level FlightAware ADS-B
Sun 01:41:09 AM 52.1446 -5.1241 114° Southeast 496 571 32,900  Descending FlightAware UK
Sun 01:41:11 AM 52.1440 -5.1250 114° Southeast 523 602 33,000 176 Climbing FlightAware ADS-B
Sun 01:41:43 AM 52.1110 -5.0040 114° Southeast 521 600 33,000  Level FlightAware ADS-B
Sun 01:42:18 AM 52.0760 -4.8810 115° Southeast 519 597 33,000  Level FlightAware ADS-B
Sun 01:42:55 AM 52.0400 -4.7540 115° Southeast 518 596 33,000  Level FlightAware ADS-B
Sun 01:43:27 AM 52.0080 -4.6400 114° Southeast 519 597 33,000  Level FlightAware ADS-B
Sun 01:43:56 AM 51.9777 -4.5351 115° Southeast 519 597 33,000  Level FlightAware ADS-B
Sun 01:44:39 AM 51.9340 -4.3830 115° Southeast 519 597 33,000  Level FlightAware ADS-B
Sun 01:44:53 AM 51.9200 -4.3343 115° Southeast 519 597 33,000  Level FlightAware ADS-B
Sun 01:45:27 AM 51.8850 -4.2131 115° Southeast 494 568 33,000  Level FlightAware UK
Sun 01:45:47 AM 51.8650 -4.1440 115° Southeast 519 597 33,000  Level FlightAware ADS-B
Sun 01:46:21 AM 51.8308 -4.0273 115° Southeast 518 596 33,000  Level FlightAware ADS-B
Sun 01:46:57 AM 51.7935 -3.8996 115° Southeast 496 571 33,000  Level FlightAware UK
Sun 01:46:59 AM 51.7930 -3.8970 115° Southeast 512 589 33,000  Level FlightAware ADS-B
Sun 01:47:32 AM 51.7600 -3.7850 115° Southeast 513 590 33,000  Level FlightAware ADS-B
Sun 01:47:33 AM 51.7569 -3.7753 115° Southeast 492 566 33,000 -194 Level FlightAware UK
Sun 01:48:03 AM 51.7263 -3.6722 115° Southeast 496 571 32,900  Descending FlightAware UK
Sun 01:48:09 AM 51.7220 -3.6560 115° Southeast 511 588 33,000 150 Climbing FlightAware ADS-B
Sun 01:48:43 AM 51.6860 -3.5360 116° Southeast 510 587 33,000  Level FlightAware ADS-B
Sun 01:49:20 AM 51.6490 -3.4140 116° Southeast 508 585 33,000 -857 Level FlightAware ADS-B
Sun 01:49:53 AM 51.6176 -3.2998 114° Southeast 501 577 32,000 -2,000 Descending FlightAware ADS-B
Sun 01:50:08 AM 51.6063 -3.2445 108° East 498 573 31,400 -2,455 Descending FlightAware ADS-B
Sun 01:50:15 AM 51.6022 -3.2199 105° East 498 573 31,100 -1,857 Descending FlightAware ADS-B
Sun 01:50:50 AM 51.5849 -3.0956 103° East 484 557 30,100 -1,853 Descending FlightAware ADS-B
Sun 01:51:23 AM 51.5701 -2.9821 102° East 473 544 29,000 -1,583 Descending FlightAware ADS-B
Sun 01:52:02 AM 51.5534 -2.8551 102° East 467 537 28,200 -1,474 Descending FlightAware ADS-B
Sun 01:52:20 AM 51.5461 -2.8001 102° East 414 476 27,600 -2,588 Descending FlightAware ADS-B
Sun 01:52:53 AM 51.5397 -2.7014 96° East 402 463 26,000 -2,476 Descending FlightAware ADS-B
Sun 01:53:23 AM 51.5368 -2.6109 93° East 394 453 25,000 -1,672 Descending FlightAware ADS-B
Sun 01:53:54 AM 51.5342 -2.5234 93° East 387 445 24,300 -1,548 Descending FlightAware ADS-B
Sun 01:54:25 AM 51.5318 -2.4351 92° East 383 441 23,400 -1,770 Descending FlightAware ADS-B
Sun 01:54:55 AM 51.5294 -2.3504 93° East 379 436 22,500 -1,714 Descending FlightAware ADS-B
Sun 01:55:28 AM 51.5268 -2.2577 93° East 374 430 21,600 -1,688 Descending FlightAware ADS-B
Sun 01:55:59 AM 51.5242 -2.1721 93° East 370 426 20,700 -1,688 Descending FlightAware ADS-B
Sun 01:56:32 AM 51.5213 -2.0830 93° East 362 417 19,800 -1,875 Descending FlightAware ADS-B
Sun 01:57:03 AM 51.5183 -2.0024 93° East 359 413 18,700 -2,032 Descending FlightAware ADS-B
Sun 01:57:34 AM 51.5148 -1.9197 94° East 361 415 17,700 -1,475 Descending FlightAware ADS-B
Sun 01:58:04 AM 51.5085 -1.8395 97° East 354 407 17,200 -1,258 Descending FlightAware ADS-B
Sun 01:58:36 AM 51.5012 -1.7583 98° East 349 402 16,400 -1,548 Descending FlightAware ADS-B
Sun 01:59:06 AM 51.4940 -1.6811 98° East 345 397 15,600 -1,475 Descending FlightAware ADS-B
Sun 01:59:37 AM 51.4868 -1.6048 99° East 341 392 14,900 -1,429 Descending FlightAware ADS-B
Sun 02:00:09 AM 51.4794 -1.5235 98° East 338 389 14,100 -857 Descending FlightAware ADS-B
Sun 02:00:40 AM 51.4742 -1.4503 96° East 318 366 14,000 -105 Descending FlightAware ADS-B
Sun 02:01:06 AM 51.4698 -1.3908 97° East 294 338 14,000  Level FlightAware ADS-B
Sun 02:01:28 AM 51.4666 -1.3455 96° East 290 334 14,000  Level FlightAware ADS-B
Sun 02:01:55 AM 51.4586 -1.2890 103° East 289 333 14,000  Level FlightAware ADS-B
Sun 02:02:27 AM 51.4473 -1.2235 105° East 290 334 14,000 -290 Level FlightAware ADS-B
Sun 02:02:57 AM 51.4360 -1.1603 106° East 287 330 13,700 -885 Descending FlightAware ADS-B
Sun 02:03:28 AM 51.4248 -1.0983 106° East 283 326 13,100 -677 Descending FlightAware ADS-B
Sun 02:03:59 AM 51.4136 -1.0369 106° East 283 326 13,000 -295 Descending FlightAware ADS-B
Sun 02:04:29 AM 51.4026 -0.9761 106° East 282 325 12,800 -800 Descending FlightAware ADS-B
Sun 02:04:59 AM 51.3916 -0.9157 106° East 281 323 12,200 -885 Descending FlightAware ADS-B
Sun 02:05:30 AM 51.3806 -0.8553 106° East 279 321 11,900 -871 Descending FlightAware ADS-B
Sun 02:06:01 AM 51.3693 -0.7935 106° East 276 318 11,300 -871 Descending FlightAware ADS-B
Sun 02:06:32 AM 51.3583 -0.7341 107° East 274 315 11,000 -295 Descending FlightAware ADS-B
Sun 02:07:02 AM 51.3474 -0.6752 106° East 277 319 11,000 -500 Level FlightAware ADS-B
Sun 02:07:32 AM 51.3365 -0.6163 106° East 274 315 10,500 -1,000 Descending FlightAware ADS-B
Sun 02:08:02 AM 51.3256 -0.5579 107° East 274 315 10,000 -492 Descending FlightAware ADS-B
Sun 02:08:33 AM 51.3147 -0.4990 106° East 271 312 10,000  Level FlightAware ADS-B
Sun 02:08:54 AM 51.3074 -0.4579 106° East 271 312 10,000  Level FlightAware ADS-B
Sun 02:09:04 AM 51.3054 -0.4382 99° East 272 313 10,000  Level FlightAware ADS-B
Sun 02:09:17 AM 51.3048 -0.4120 92° East 274 315 10,000  Level FlightAware ADS-B
Sun 02:09:42 AM 51.3042 -0.3631 91° East 271 312 10,000  Level FlightAware ADS-B
Sun 02:10:01 AM 51.3035 -0.3236 92° East 270 311 10,000  Level FlightAware ADS-B
Sun 02:10:07 AM 51.3025 -0.3134 99° East 269 310 10,000  Level FlightAware ADS-B
Sun 02:10:12 AM 51.3003 -0.3030 109° East 267 307 10,000  Level FlightAware ADS-B
Sun 02:10:16 AM 51.2980 -0.2962 118° Southeast 265 305 10,000  Level FlightAware ADS-B
Sun 02:10:23 AM 51.2929 -0.2853 127° Southeast 263 303 10,000  Level FlightAware ADS-B
Sun 02:10:28 AM 51.2892 -0.2794 135° Southeast 260 299 10,000  Level FlightAware ADS-B
Sun 02:10:33 AM 51.2840 -0.2734 144° Southeast 255 293 10,000  Level FlightAware ADS-B
Sun 02:10:37 AM 51.2801 -0.2699 151° Southeast 253 291 10,000  Level FlightAware ADS-B
Sun 02:10:40 AM 51.2764 -0.2673 156° South 252 290 10,000  Level FlightAware ADS-B
Sun 02:10:50 AM 51.2659 -0.2636 167° South 247 284 10,000  Level FlightAware ADS-B
Sun 02:10:58 AM 51.2567 -0.2641 182° South 244 281 10,000  Level FlightAware ADS-B
Sun 02:11:08 AM 51.2455 -0.2691 195° South 241 277 10,000  Level FlightAware ADS-B
Sun 02:11:13 AM 51.2404 -0.2733 207° Southwest 241 277 10,000  Level FlightAware ADS-B
Sun 02:11:18 AM 51.2362 -0.2782 216° Southwest 241 277 10,000  Level FlightAware ADS-B
Sun 02:11:29 AM 51.2282 -0.2920 227° Southwest 243 280 10,000  Level FlightAware ADS-B
Sun 02:11:34 AM 51.2253 -0.3000 240° Southwest 245 282 10,000  Level FlightAware ADS-B
Sun 02:11:37 AM 51.2237 -0.3059 247° West 246 283 10,000  Level FlightAware ADS-B
Sun 02:11:43 AM 51.2218 -0.3161 253° West 249 287 10,000  Level FlightAware ADS-B
Sun 02:11:47 AM 51.2211 -0.3233 261° West 249 287 10,000  Level FlightAware ADS-B
Sun 02:11:53 AM 51.2210 -0.3343 269° West 251 289 10,000  Level FlightAware ADS-B
Sun 02:11:57 AM 51.2216 -0.3409 278° West 253 291 10,000  Level FlightAware ADS-B
Sun 02:12:00 AM 51.2225 -0.3471 283° West 255 293 10,000  Level FlightAware ADS-B
Sun 02:12:04 AM 51.2238 -0.3536 288° West 257 296 10,000  Level FlightAware ADS-B
Sun 02:12:12 AM 51.2285 -0.3674 299° West 256 295 10,000  Level FlightAware ADS-B
Sun 02:12:19 AM 51.2334 -0.3767 310° West 258 297 10,000  Level FlightAware ADS-B
Sun 02:12:23 AM 51.2379 -0.3829 319° Northwest 260 299 10,000  Level FlightAware ADS-B
Sun 02:12:30 AM 51.2447 -0.3900 327° Northwest 265 305 10,000  Level FlightAware ADS-B
Sun 02:12:47 AM 51.2619 -0.4079 327° Northwest 268 308 10,000 -429 Level FlightAware ADS-B
Sun 02:12:58 AM 51.2736 -0.4199 327° Northwest 271 312 9,800 -1,000 Descending FlightAware ADS-B
Sun 02:13:11 AM 51.2882 -0.4340 329° Northwest 271 312 9,600 -1,034 Descending FlightAware ADS-B
Sun 02:13:27 AM 51.3050 -0.4496 330° Northwest 268 308 9,300 -1,200 Descending FlightAware ADS-B
Sun 02:13:36 AM 51.3151 -0.4563 337° Northwest 268 308 9,100 -1,286 Descending FlightAware ADS-B
Sun 02:13:41 AM 51.3219 -0.4584 349° North 269 310 9,000 -1,333 Descending FlightAware ADS-B
Sun 02:13:45 AM 51.3268 -0.4591 355° North 272 313 8,900 -1,333 Descending FlightAware ADS-B
Sun 02:13:50 AM 51.3326 -0.4595 358° North 273 314 8,800 -1,385 Descending FlightAware ADS-B
Sun 02:13:58 AM 51.3437 -0.4596 360° North 275 316 8,600 -1,500 Descending FlightAware ADS-B
Sun 02:14:06 AM 51.3535 -0.4597 360° North 276 318 8,400 -1,304 Descending FlightAware ADS-B
Sun 02:14:21 AM 51.3728 -0.4599 360° North 275 316 8,100 -857 Descending FlightAware ADS-B
Sun 02:14:34 AM 51.3890 -0.4601 359° North 273 314 8,000 -207 Descending FlightAware ADS-B
Sun 02:14:50 AM 51.4085 -0.4603 360° North 270 311 8,000  Level FlightAware ADS-B
Sun 02:14:54 AM 51.4142 -0.4596 North 268 308 8,000  Level FlightAware ADS-B
Sun 02:14:58 AM 51.4184 -0.4585 North 268 308 8,000  Level FlightAware ADS-B
Sun 02:15:01 AM 51.4225 -0.4566 16° North 269 310 8,000  Level FlightAware ADS-B
Sun 02:15:05 AM 51.4276 -0.4534 21° North 271 312 8,000  Level FlightAware ADS-B
Sun 02:15:09 AM 51.4315 -0.4500 29° Northeast 272 313 8,000  Level FlightAware ADS-B
Sun 02:15:14 AM 51.4367 -0.4439 36° Northeast 272 313 8,000  Level FlightAware ADS-B
Sun 02:15:18 AM 51.4400 -0.4386 45° Northeast 273 314 8,000  Level FlightAware ADS-B
Sun 02:15:22 AM 51.4434 -0.4318 51° Northeast 272 313 8,000  Level FlightAware ADS-B
Sun 02:15:26 AM 51.4459 -0.4250 59° Northeast 272 313 8,000  Level FlightAware ADS-B
Sun 02:15:32 AM 51.4489 -0.4134 68° East 270 311 8,000  Level FlightAware ADS-B
Sun 02:15:38 AM 51.4504 -0.4026 77° East 267 307 8,000  Level FlightAware ADS-B
Sun 02:15:42 AM 51.4506 -0.3947 88° East 263 303 8,000  Level FlightAware ADS-B
Sun 02:15:47 AM 51.4498 -0.3837 97° East 260 299 8,000 -400 Level FlightAware ADS-B
Sun 02:15:57 AM 51.4460 -0.3669 110° East 258 297 7,900 -857 Descending FlightAware ADS-B
Sun 02:16:01 AM 51.4430 -0.3597 124° Southeast 257 296 7,800 -1,333 Descending FlightAware ADS-B
Sun 02:16:06 AM 51.4390 -0.3525 132° Southeast 255 293 7,700 -1,333 Descending FlightAware ADS-B
Sun 02:16:10 AM 51.4358 -0.3479 138° Southeast 255 293 7,600 -750 Descending FlightAware ADS-B
Sun 02:16:14 AM 51.4317 -0.3426 141° Southeast 256 295 7,600 -900 Level FlightAware ADS-B
Sun 02:16:30 AM 51.4165 -0.3252 145° Southeast 252 290 7,300 -774 Descending FlightAware ADS-B
Sun 02:16:45 AM 51.4027 -0.3090 144° Southeast 247 284 7,200 -632 Descending FlightAware ADS-B
Sun 02:16:49 AM 51.3991 -0.3042 140° Southeast 249 287 7,100 -1,333 Descending FlightAware ADS-B
Sun 02:16:54 AM 51.3952 -0.2979 135° Southeast 251 289 7,000 -750 Descending FlightAware ADS-B
Sun 02:16:57 AM 51.3928 -0.2929 128° Southeast 252 290 7,000  Level FlightAware ADS-B
Sun 02:17:00 AM 51.3910 -0.2882 121° Southeast 253 291 7,000  Level FlightAware ADS-B
Sun 02:17:04 AM 51.3893 -0.2826 116° Southeast 254 292 7,000  Level FlightAware ADS-B
Sun 02:17:09 AM 51.3874 -0.2724 107° East 258 297 7,000  Level FlightAware ADS-B
Sun 02:17:16 AM 51.3866 -0.2605 96° East 261 300 7,000 -500 Level FlightAware ADS-B
Sun 02:17:21 AM 51.3868 -0.2508 88° East 263 303 6,900 -1,000 Descending FlightAware ADS-B
Sun 02:17:28 AM 51.3877 -0.2360 84° East 265 305 6,800 -783 Descending FlightAware ADS-B
Sun 02:17:44 AM 51.3898 -0.2057 84° East 266 306 6,600 -750 Descending FlightAware ADS-B
Sun 02:18:00 AM 51.3920 -0.1739 84° East 263 303 6,400 -938 Descending FlightAware ADS-B
Sun 02:18:16 AM 51.3940 -0.1439 84° East 263 303 6,100 -938 Descending FlightAware ADS-B
Sun 02:18:32 AM 51.3961 -0.1131 84° East 264 304 5,900 -774 Descending FlightAware ADS-B
Sun 02:18:47 AM 51.3979 -0.0840 84° East 264 304 5,700 -1,000 Descending FlightAware ADS-B
Sun 02:19:02 AM 51.3998 -0.0544 84° East 261 300 5,400 -900 Descending FlightAware ADS-B
Sun 02:19:27 AM 51.4027 -0.0076 84° East 255 293 5,100 -833 Descending FlightAware ADS-B
Sun 02:19:38 AM 51.4045 0.0134 82° East 249 287 4,900 -857 Descending FlightAware ADS-B
Sun 02:19:48 AM 51.4090 0.0304 67° East 247 284 4,800 -857 Descending FlightAware ADS-B
Sun 02:19:52 AM 51.4117 0.0362 53° Northeast 245 282 4,700 -774 Descending FlightAware ADS-B
Sun 02:20:19 AM 51.4374 0.0531 22° Northeast 231 266 4,400 -706 Descending FlightAware ADS-B
Sun 02:20:26 AM 51.4441 0.0503 346° North 226 260 4,300 -692 Descending FlightAware ADS-B
Sun 02:20:45 AM 51.4568 0.0315 317° Northwest 197 227 4,100 -480 Descending FlightAware ADS-B
Sun 02:20:51 AM 51.4591 0.0241 296° West 187 215 4,100 -333 Level FlightAware ADS-B
Sun 02:21:03 AM 51.4634 0.0085 294° West 184 212 4,000 -333 Descending FlightAware ADS-B
Sun 02:21:09 AM 51.4645 0.0005 282° West 180 207 4,000  Level FlightAware ADS-B
Sun 02:21:15 AM 51.4648 -0.0063 274° West 179 206 4,000 -250 Level FlightAware ADS-B
Sun 02:21:33 AM 51.4652 -0.0299 272° West 178 205 3,900 -171 Descending FlightAware ADS-B
Sun 02:21:50 AM 51.4654 -0.0526 271° West 177 204 3,900  Level FlightAware ADS-B
Sun 02:22:06 AM 51.4654 -0.0738 270° West 177 204 3,900  Level FlightAware ADS-B
Sun 02:22:23 AM 51.4655 -0.0963 270° West 177 204 3,900  Level FlightAware ADS-B
Sun 02:22:40 AM 51.4655 -0.1188 270° West 178 205 3,900 -545 Level FlightAware ADS-B
Sun 02:22:56 AM 51.4655 -0.1396 270° West 181 208 3,600 -1,059 Descending FlightAware ADS-B
Sun 02:23:14 AM 51.4655 -0.1638 270° West 178 205 3,300 -1,059 Descending FlightAware ADS-B
Sun 02:23:30 AM 51.4654 -0.1842 270° West 175 201 3,000 -909 Descending FlightAware ADS-B
Sun 02:23:47 AM 51.4654 -0.2055 270° West 174 200 2,800 -909 Descending FlightAware ADS-B
Sun 02:24:03 AM 51.4654 -0.2269 270° West 175 201 2,500 -1,125 Descending FlightAware ADS-B
Sun 02:24:19 AM 51.4654 -0.2479 270° West 175 201 2,200 -909 Descending FlightAware ADS-B
Sun 02:24:36 AM 51.4654 -0.2692 270° West 172 198 2,000 -906 Descending FlightAware ADS-B
Sun 02:25:12 AM 51.4652 -0.3121 270° West 164 189 1,400 -857 Descending FlightAware UK
Sun 02:25:18 AM 51.4650 -0.3180 270° West 155 178 1,400 -563 Level FlightAware ADS-B
Sun 02:25:44 AM 51.4650 -0.3460 270° West 151 174 1,100 -774 Descending FlightAware ADS-B
Sun 02:26:20 AM 51.4650 -0.3870 270° West 146 168 600 -840 Descending FlightAware ADS-B
Sun 02:26:34 AM 51.4650 -0.4020 270° West 147 169 400 -857 Descending FlightAware ADS-B
Sun 02:27:00 AM 51.4650 -0.4300 270° West 148 170 -923 Descending FlightAware ADS-B
Sun 02:27:33 AM 51.4650 -0.4610 270° West 149 171  Level FlightAware ADS-B

Login

Don't have an account? Register now (free) for customized features, flight alerts, and more!